TSO151 UUDD-UWUU
Flight info
| Callsign | TSO151 |
|---|---|
| Flight time | N/A |
| Altitude | 35000 |
| Route | N0470F350 KOGOM L94 EKPIR M864 INKEB L94 UNORO T788 NAMUD L994 DILUP |
| Aircraft | B763/H-Q/L |
Departure
| Time | 2026-05-06 16:19 |
|---|---|
| Airport | Domodedovo International Airport (UUDD) |
Arrival
| Time | N/A |
|---|---|
| Airport | Ufa International Airport (UWUU) |
| Time | Latitude | Longitude | Altitude | Speed | Heading |
|---|---|---|---|---|---|
| 2026-05-06 16:19 | 55.66591 | 38.04665 | 9827 ft | 319 kts | 73° |
| 2026-05-06 16:19 | 55.67158 | 38.08458 | 10404 ft | 317 kts | 73° |
| 2026-05-06 16:19 | 55.67724 | 38.12238 | 10833 ft | 320 kts | 73° |
| 2026-05-06 16:19 | 55.68296 | 38.16058 | 11316 ft | 322 kts | 73° |
| 2026-05-06 16:20 | 55.68862 | 38.19848 | 11807 ft | 323 kts | 73° |
| 2026-05-06 16:20 | 55.69444 | 38.23751 | 11980 ft | 333 kts | 73° |
| 2026-05-06 16:20 | 55.70050 | 38.27821 | 12045 ft | 350 kts | 73° |
| 2026-05-06 16:20 | 55.70684 | 38.32097 | 12110 ft | 366 kts | 73° |
| 2026-05-06 16:21 | 55.71350 | 38.36593 | 12170 ft | 382 kts | 73° |
| 2026-05-06 16:21 | 55.72030 | 38.41204 | 12252 ft | 394 kts | 73° |
| 2026-05-06 16:21 | 55.72728 | 38.45958 | 12648 ft | 397 kts | 73° |
| 2026-05-06 16:21 | 55.73420 | 38.50681 | 13061 ft | 399 kts | 73° |
| 2026-05-06 16:22 | 55.74119 | 38.55460 | 13494 ft | 400 kts | 73° |
| 2026-05-06 16:22 | 55.74818 | 38.60256 | 13856 ft | 402 kts | 73° |
| 2026-05-06 16:22 | 55.75521 | 38.65097 | 14221 ft | 405 kts | 74° |
| 2026-05-06 16:22 | 55.76231 | 38.69999 | 14580 ft | 406 kts | 75° |
| 2026-05-06 16:23 | 55.76934 | 38.74867 | 14915 ft | 409 kts | 75° |
| 2026-05-06 16:23 | 55.77642 | 38.79788 | 15252 ft | 410 kts | 75° |
| 2026-05-06 16:23 | 55.78342 | 38.84664 | 15622 ft | 411 kts | 75° |
| 2026-05-06 16:23 | 55.79053 | 38.89634 | 15932 ft | 413 kts | 75° |
| 2026-05-06 16:24 | 55.79763 | 38.94610 | 16184 ft | 416 kts | 75° |
| 2026-05-06 16:24 | 55.80475 | 38.99615 | 16524 ft | 417 kts | 75° |
| 2026-05-06 16:24 | 55.81180 | 39.04594 | 16829 ft | 418 kts | 75° |
| 2026-05-06 16:24 | 55.81898 | 39.09682 | 17093 ft | 421 kts | 75° |
| 2026-05-06 16:25 | 55.82605 | 39.14695 | 17380 ft | 422 kts | 75° |
| 2026-05-06 16:25 | 55.83319 | 39.19794 | 17641 ft | 424 kts | 75° |
| 2026-05-06 16:25 | 55.84025 | 39.24838 | 17940 ft | 424 kts | 75° |
| 2026-05-06 16:25 | 55.84748 | 39.30024 | 18156 ft | 427 kts | 75° |
| 2026-05-06 16:26 | 55.85457 | 39.35134 | 18464 ft | 427 kts | 75° |
| 2026-05-06 16:26 | 55.86167 | 39.40259 | 18706 ft | 428 kts | 74° |
| 2026-05-06 16:26 | 55.86879 | 39.45418 | 18940 ft | 430 kts | 74° |
| 2026-05-06 16:26 | 55.87590 | 39.50593 | 19197 ft | 430 kts | 74° |
| 2026-05-06 16:27 | 55.88312 | 39.55855 | 19358 ft | 434 kts | 74° |
| 2026-05-06 16:27 | 55.89022 | 39.61055 | 19632 ft | 434 kts | 74° |
| 2026-05-06 16:27 | 55.89731 | 39.66267 | 19799 ft | 437 kts | 75° |
| 2026-05-06 16:27 | 55.90462 | 39.71657 | 20056 ft | 437 kts | 75° |
| 2026-05-06 16:28 | 55.91175 | 39.76937 | 20209 ft | 439 kts | 75° |
| 2026-05-06 16:28 | 55.91884 | 39.82196 | 20470 ft | 438 kts | 75° |
| 2026-05-06 16:28 | 55.92600 | 39.87536 | 20616 ft | 440 kts | 75° |
| 2026-05-06 16:28 | 55.93317 | 39.92901 | 20795 ft | 441 kts | 75° |
| 2026-05-06 16:29 | 55.94024 | 39.98203 | 20942 ft | 443 kts | 75° |
| 2026-05-06 16:29 | 55.94740 | 40.03599 | 21190 ft | 441 kts | 75° |
| 2026-05-06 16:29 | 55.95448 | 40.08951 | 21237 ft | 445 kts | 75° |
| 2026-05-06 16:29 | 55.96151 | 40.14290 | 21472 ft | 444 kts | 75° |
| 2026-05-06 16:30 | 55.96855 | 40.19652 | 21574 ft | 446 kts | 75° |
| 2026-05-06 16:30 | 55.97332 | 40.23292 | 21645 ft | 447 kts | 75° |
| 2026-05-06 16:30 | 55.98269 | 40.30483 | 21902 ft | 446 kts | 75° |
| 2026-05-06 16:30 | 55.98970 | 40.35886 | 21993 ft | 448 kts | 75° |
| 2026-05-06 16:31 | 55.99672 | 40.41306 | 22106 ft | 449 kts | 75° |
| 2026-05-06 16:31 | 56.00375 | 40.46765 | 22281 ft | 448 kts | 75° |
| 2026-05-06 16:31 | 56.01076 | 40.52225 | 22328 ft | 451 kts | 75° |
| 2026-05-06 16:31 | 56.01778 | 40.57711 | 22504 ft | 450 kts | 75° |
| 2026-05-06 16:32 | 56.02471 | 40.63152 | 22582 ft | 451 kts | 75° |
| 2026-05-06 16:32 | 56.03170 | 40.68667 | 22646 ft | 453 kts | 76° |
| 2026-05-06 16:32 | 56.03749 | 40.74250 | 22738 ft | 453 kts | 83° |
| 2026-05-06 16:32 | 56.03902 | 40.79901 | 22883 ft | 452 kts | 88° |
| 2026-05-06 16:33 | 56.03996 | 40.85482 | 22904 ft | 455 kts | 88° |
| 2026-05-06 16:33 | 56.04056 | 40.91220 | 22921 ft | 457 kts | 88° |
| 2026-05-06 16:33 | 56.04104 | 40.96870 | 23052 ft | 456 kts | 88° |
| 2026-05-06 16:34 | 56.04174 | 41.08255 | 23235 ft | 456 kts | 88° |
| 2026-05-06 16:34 | 56.04202 | 41.13933 | 23271 ft | 458 kts | 88° |
| 2026-05-06 16:34 | 56.04226 | 41.19633 | 23356 ft | 458 kts | 88° |
| 2026-05-06 16:34 | 56.04248 | 41.25336 | 23483 ft | 457 kts | 88° |
| 2026-05-06 16:35 | 56.04266 | 41.31036 | 23530 ft | 458 kts | 89° |
| 2026-05-06 16:35 | 56.04282 | 41.36807 | 23564 ft | 459 kts | 89° |
| 2026-05-06 16:35 | 56.04296 | 41.42483 | 23678 ft | 458 kts | 89° |
| 2026-05-06 16:35 | 56.04306 | 41.48221 | 23718 ft | 459 kts | 89° |
| 2026-05-06 16:36 | 56.04314 | 41.53971 | 23751 ft | 460 kts | 88° |
| 2026-05-06 16:36 | 56.04319 | 41.59684 | 23828 ft | 460 kts | 89° |
| 2026-05-06 16:36 | 56.04321 | 41.65379 | 23841 ft | 461 kts | 89° |
| 2026-05-06 16:36 | 56.04321 | 41.71211 | 23877 ft | 462 kts | 89° |
| 2026-05-06 16:37 | 56.04319 | 41.76960 | 24020 ft | 460 kts | 89° |
| 2026-05-06 16:37 | 56.04313 | 41.82762 | 24027 ft | 461 kts | 89° |
| 2026-05-06 16:37 | 56.04305 | 41.88422 | 24069 ft | 461 kts | 89° |
| 2026-05-06 16:37 | 56.04294 | 41.94219 | 24101 ft | 462 kts | 89° |
| 2026-05-06 16:38 | 56.04281 | 41.99929 | 24164 ft | 461 kts | 89° |
| 2026-05-06 16:38 | 56.04265 | 42.05698 | 24177 ft | 462 kts | 89° |
| 2026-05-06 16:38 | 56.04246 | 42.11453 | 24283 ft | 461 kts | 89° |
| 2026-05-06 16:38 | 56.04224 | 42.17262 | 24309 ft | 462 kts | 89° |
| 2026-05-06 16:39 | 56.04200 | 42.22942 | 24314 ft | 463 kts | 89° |
| 2026-05-06 16:39 | 56.04173 | 42.28699 | 24344 ft | 463 kts | 89° |
| 2026-05-06 16:39 | 56.04143 | 42.34490 | 24344 ft | 464 kts | 89° |
| 2026-05-06 16:39 | 56.04111 | 42.40256 | 24370 ft | 465 kts | 89° |
| 2026-05-06 16:40 | 56.04076 | 42.46079 | 24394 ft | 465 kts | 89° |
| 2026-05-06 16:40 | 56.04038 | 42.51876 | 24403 ft | 466 kts | 89° |
| 2026-05-06 16:40 | 56.03979 | 42.57687 | 24439 ft | 467 kts | 90° |
| 2026-05-06 16:40 | 56.03910 | 42.63456 | 24471 ft | 467 kts | 90° |
| 2026-05-06 16:41 | 56.03839 | 42.69248 | 24493 ft | 468 kts | 91° |
| 2026-05-06 16:41 | 56.03764 | 42.75085 | 24492 ft | 469 kts | 91° |
| 2026-05-06 16:41 | 56.03686 | 42.80969 | 24561 ft | 468 kts | 91° |
| 2026-05-06 16:41 | 56.03607 | 42.86737 | 24601 ft | 468 kts | 91° |
| 2026-05-06 16:42 | 56.03524 | 42.92606 | 24607 ft | 471 kts | 91° |
| 2026-05-06 16:42 | 56.03437 | 42.98493 | 24613 ft | 475 kts | 91° |
| 2026-05-06 16:42 | 56.03348 | 43.04417 | 24619 ft | 479 kts | 91° |
| 2026-05-06 16:42 | 56.03255 | 43.10395 | 24615 ft | 483 kts | 91° |
| 2026-05-06 16:43 | 56.03158 | 43.16428 | 24619 ft | 486 kts | 91° |
| 2026-05-06 16:43 | 56.03056 | 43.22489 | 24615 ft | 489 kts | 91° |
| 2026-05-06 16:43 | 56.02953 | 43.28596 | 24615 ft | 492 kts | 91° |
| 2026-05-06 16:43 | 56.02964 | 43.34741 | 24618 ft | 494 kts | 84° |
| 2026-05-06 16:44 | 56.03370 | 43.40842 | 24646 ft | 494 kts | 81° |
| 2026-05-06 16:44 | 56.03776 | 43.46960 | 24721 ft | 495 kts | 82° |
| 2026-05-06 16:44 | 56.04190 | 43.53056 | 24798 ft | 496 kts | 82° |
| 2026-05-06 16:44 | 56.04602 | 43.59222 | 24889 ft | 496 kts | 82° |
| 2026-05-06 16:45 | 56.05006 | 43.65282 | 24981 ft | 496 kts | 83° |
| 2026-05-06 16:45 | 56.05419 | 43.71498 | 25109 ft | 495 kts | 83° |
| 2026-05-06 16:45 | 56.05822 | 43.77622 | 25214 ft | 495 kts | 82° |
| 2026-05-06 16:45 | 56.06222 | 43.83736 | 25406 ft | 494 kts | 83° |
| 2026-05-06 16:46 | 56.06622 | 43.89928 | 26114 ft | 496 kts | 83° |
| 2026-05-06 16:46 | 56.07013 | 43.95965 | 26976 ft | 491 kts | 83° |
| 2026-05-06 16:46 | 56.07402 | 44.02028 | 27683 ft | 490 kts | 83° |
| 2026-05-06 16:46 | 56.07785 | 44.08097 | 28460 ft | 486 kts | 83° |
| 2026-05-06 16:47 | 56.08163 | 44.14101 | 28826 ft | 492 kts | 83° |
| 2026-05-06 16:47 | 56.08545 | 44.20236 | 29311 ft | 492 kts | 83° |
| 2026-05-06 16:47 | 56.08923 | 44.26327 | 29526 ft | 495 kts | 83° |
| 2026-05-06 16:47 | 56.09295 | 44.32410 | 29822 ft | 491 kts | 83° |
| 2026-05-06 16:48 | 56.09660 | 44.38442 | 30540 ft | 481 kts | 83° |
| 2026-05-06 16:48 | 56.10022 | 44.44429 | 30724 ft | 486 kts | 83° |
| 2026-05-06 16:48 | 56.10393 | 44.50554 | 31057 ft | 489 kts | 83° |
| 2026-05-06 16:48 | 56.10749 | 44.56543 | 31544 ft | 489 kts | 83° |
| 2026-05-06 16:49 | 56.11103 | 44.62696 | 31913 ft | 492 kts | 85° |
| 2026-05-06 16:49 | 56.11154 | 44.68824 | 32376 ft | 491 kts | 92° |
| 2026-05-06 16:49 | 56.11061 | 44.74990 | 32849 ft | 491 kts | 91° |
| 2026-05-06 16:49 | 56.10957 | 44.81080 | 33299 ft | 489 kts | 92° |
| 2026-05-06 16:50 | 56.10841 | 44.87148 | 33551 ft | 482 kts | 92° |
| 2026-05-06 16:50 | 56.10720 | 44.93096 | 33813 ft | 473 kts | 92° |
| 2026-05-06 16:50 | 56.10597 | 44.98953 | 34074 ft | 464 kts | 92° |
| 2026-05-06 16:50 | 56.10469 | 45.04676 | 34331 ft | 455 kts | 93° |
| 2026-05-06 16:51 | 56.10338 | 45.10290 | 34588 ft | 447 kts | 92° |
| 2026-05-06 16:51 | 56.10207 | 45.15837 | 34838 ft | 438 kts | 92° |
| 2026-05-06 16:51 | 56.10080 | 45.21281 | 34884 ft | 444 kts | 93° |
| 2026-05-06 16:52 | 56.09807 | 45.32648 | 34890 ft | 464 kts | 92° |
| 2026-05-06 16:52 | 56.09513 | 45.44474 | 34886 ft | 483 kts | 92° |
| 2026-05-06 16:53 | 56.09196 | 45.56739 | 34880 ft | 501 kts | 92° |
| 2026-05-06 16:53 | 56.08856 | 45.69389 | 34877 ft | 516 kts | 93° |
| 2026-05-06 16:54 | 56.08494 | 45.82394 | 34869 ft | 527 kts | 93° |
| 2026-05-06 16:54 | 56.08114 | 45.95566 | 34867 ft | 534 kts | 94° |
| 2026-05-06 16:55 | 56.07714 | 46.08868 | 34864 ft | 537 kts | 94° |
| 2026-05-06 16:55 | 56.07296 | 46.22305 | 34870 ft | 539 kts | 93° |
| 2026-05-06 16:56 | 56.06865 | 46.35695 | 34875 ft | 539 kts | 93° |
| 2026-05-06 16:56 | 56.06234 | 46.49046 | 34875 ft | 538 kts | 101° |
| 2026-05-06 16:57 | 56.04050 | 46.61821 | 34884 ft | 537 kts | 110° |
| 2026-05-06 16:57 | 56.01463 | 46.74386 | 34881 ft | 536 kts | 111° |
| 2026-05-06 16:58 | 55.98793 | 46.86940 | 34880 ft | 536 kts | 112° |
| 2026-05-06 16:58 | 55.96107 | 46.99389 | 34873 ft | 536 kts | 112° |